createdAt,value
2016-02-22T00:01:38.038Z,1
2016-02-22T00:04:51.093Z,0
2016-02-22T00:08:04.122Z,0
2016-02-22T00:11:15.037Z,0
2016-02-22T00:14:25.795Z,0
2016-02-22T00:17:42.933Z,0
2016-02-22T00:20:45.379Z,0
2016-02-22T00:23:56.230Z,0
2016-02-22T00:27:07.163Z,0
2016-02-22T00:30:17.874Z,0
2016-02-22T00:33:37.242Z,0
2016-02-22T00:36:39.797Z,0
2016-02-22T00:39:52.945Z,0
2016-02-22T00:43:03.659Z,0
2016-02-22T00:46:17.026Z,0
2016-02-22T00:49:36.269Z,0
2016-02-22T00:52:38.855Z,0
2016-02-22T00:55:51.769Z,0
2016-02-22T00:59:05.139Z,0
2016-02-22T01:02:18.412Z,0
2016-02-22T01:05:35.375Z,0
2016-02-22T01:08:37.664Z,0
2016-02-22T01:11:50.250Z,0
2016-02-22T01:15:03.573Z,0
2016-02-22T01:18:16.925Z,0
2016-02-22T01:21:35.933Z,0
2016-02-22T01:24:38.332Z,0
2016-02-22T01:27:48.621Z,0
2016-02-22T01:30:58.660Z,0
2016-02-22T01:34:11.624Z,0
2016-02-22T01:37:24.492Z,0
2016-02-22T01:40:37.890Z,0
2016-02-22T01:43:51.133Z,0
2016-02-22T01:47:01.328Z,0
2016-02-22T01:50:14.574Z,0
2016-02-22T01:53:33.925Z,0
2016-02-22T01:56:42.621Z,0
2016-02-22T01:59:44.863Z,0
2016-02-22T02:02:57.965Z,0
2016-02-22T02:06:08.007Z,0
2016-02-22T02:09:21.062Z,0
2016-02-22T02:12:40.398Z,0
2016-02-22T02:15:42.672Z,0
2016-02-22T02:18:56.008Z,0
2016-02-22T02:22:08.816Z,0
2016-02-22T02:25:21.918Z,0
2016-02-22T02:28:41.582Z,0
2016-02-22T02:31:43.934Z,0
2016-02-22T02:34:56.926Z,0
2016-02-22T02:38:09.218Z,0
2016-02-22T02:41:21.617Z,0
2016-02-22T02:44:37.781Z,0
2016-02-22T02:47:40.133Z,0
2016-02-22T02:50:52.313Z,384
2016-02-22T02:54:12.417Z,384
2016-02-22T02:57:41.363Z,384
2016-02-22T03:00:52.871Z,384
2016-02-22T03:04:12.757Z,0
2016-02-22T03:07:25.968Z,0
2016-02-22T03:10:39.039Z,0
2016-02-22T03:13:52.484Z,0
2016-02-22T03:17:05.789Z,0
2016-02-22T03:20:16.050Z,0
2016-02-22T03:23:26.996Z,0
2016-02-22T03:26:40.066Z,0
2016-02-22T03:29:53.074Z,0
2016-02-22T03:33:04.707Z,0
2016-02-22T03:36:14.718Z,0
2016-02-22T03:39:25.289Z,0
2016-02-22T03:42:38.422Z,0
2016-02-22T03:45:51.508Z,0
2016-02-22T03:49:02.516Z,0
2016-02-22T03:52:15.667Z,0
2016-02-22T03:55:26.582Z,0
2016-02-22T03:58:39.527Z,0
2016-02-22T04:01:50.113Z,0
2016-02-22T04:05:03.340Z,0
2016-02-22T04:08:16.538Z,0
2016-02-22T04:11:35.718Z,0
2016-02-22T04:14:38.070Z,0
2016-02-22T04:17:47.687Z,0
2016-02-22T04:21:01.024Z,0
2016-02-22T04:24:14.285Z,0
2016-02-22T04:27:25.808Z,0
2016-02-22T04:30:39.097Z,0
2016-02-22T04:33:52.387Z,0
2016-02-22T04:37:05.645Z,0
2016-02-22T04:40:16.921Z,0
2016-02-22T04:43:35.570Z,0
2016-02-22T04:46:37.937Z,0
2016-02-22T04:49:51.165Z,0
2016-02-22T04:53:04.360Z,0
2016-02-22T04:56:14.761Z,0
2016-02-22T04:59:26.957Z,0
2016-02-22T05:02:39.887Z,0
2016-02-22T05:05:49.787Z,0
2016-02-22T05:09:02.701Z,0
2016-02-22T05:12:15.837Z,0
2016-02-22T05:15:34.736Z,0
2016-02-22T05:18:37.181Z,0
2016-02-22T05:21:46.909Z,0
2016-02-22T05:24:59.917Z,0
2016-02-22T05:28:13.069Z,0
2016-02-22T05:31:26.185Z,0
2016-02-22T05:34:39.428Z,0
2016-02-22T05:37:50.404Z,0
2016-02-22T05:41:03.444Z,0
2016-02-22T05:44:13.501Z,1
2016-02-22T05:47:25.994Z,2
2016-02-22T05:50:39.158Z,3
2016-02-22T05:53:52.588Z,6
2016-02-22T05:57:05.784Z,7
2016-02-22T06:00:18.841Z,15
2016-02-22T06:03:34.553Z,20
2016-02-22T06:06:42.952Z,31
2016-02-22T06:09:45.252Z,46
2016-02-22T06:12:58.144Z,48
2016-02-22T06:16:11.326Z,67
2016-02-22T06:19:22.477Z,76
2016-02-22T06:22:41.668Z,93
2016-02-22T06:25:43.954Z,89
2016-02-22T06:28:54.382Z,66
2016-02-22T06:32:04.076Z,73
2016-02-22T06:35:15.085Z,32
2016-02-22T06:38:34.125Z,91
2016-02-22T06:41:42.384Z,123
2016-02-22T06:44:44.548Z,183
2016-02-22T06:47:57.478Z,200
2016-02-22T06:51:10.535Z,226
2016-02-22T06:54:21.261Z,270
2016-02-22T06:57:40.316Z,388
2016-02-22T07:00:42.591Z,375
2016-02-22T07:03:53.130Z,508
2016-02-22T07:07:03.904Z,557
2016-02-22T07:10:16.961Z,650
2016-02-22T07:13:27.015Z,650
2016-02-22T07:16:37.587Z,667
2016-02-22T07:19:50.579Z,877
2016-02-22T07:23:03.711Z,704
2016-02-22T07:26:16.911Z,588
2016-02-22T07:29:34.262Z,931
2016-02-22T07:32:42.348Z,844
2016-02-22T07:35:44.513Z,951
2016-02-22T07:38:55.958Z,931
2016-02-22T07:42:06.388Z,1034
2016-02-22T07:45:19.540Z,1083
2016-02-22T07:48:38.517Z,1090
2016-02-22T07:51:40.759Z,1068
2016-02-22T07:54:54.173Z,1050
2016-02-22T07:58:06.822Z,925
2016-02-22T08:01:17.239Z,577
2016-02-22T08:04:36.434Z,666
2016-02-22T08:07:39.192Z,503
2016-02-22T08:10:51.435Z,774
2016-02-22T08:14:04.381Z,726
2016-02-22T08:17:17.251Z,1136
2016-02-22T08:20:33.665Z,1176
2016-02-22T08:23:41.861Z,1024
2016-02-22T08:26:43.916Z,958
2016-02-22T08:29:53.783Z,917
2016-02-22T08:33:03.916Z,812
2016-02-22T08:36:16.771Z,914
2016-02-22T08:39:35.904Z,1364
2016-02-22T08:42:37.865Z,1433
2016-02-22T08:45:49.560Z,1445
2016-02-22T08:48:59.912Z,1576
2016-02-22T08:52:10.343Z,1779
2016-02-22T08:55:23.508Z,1932
2016-02-22T08:58:42.533Z,1857
2016-02-22T09:01:44.728Z,1814
2016-02-22T09:04:57.611Z,2367
2016-02-22T09:08:12.744Z,2397
2016-02-22T09:11:23.755Z,2335
2016-02-22T09:14:42.795Z,2168
2016-02-22T09:17:44.943Z,2218
2016-02-22T09:20:57.904Z,2258
2016-02-22T09:24:10.975Z,2317
2016-02-22T09:27:23.814Z,2265
2016-02-22T09:30:42.869Z,2219
2016-02-22T09:33:44.971Z,2759
2016-02-22T09:36:57.869Z,2401
2016-02-22T09:40:09.174Z,2459
2016-02-22T09:43:22.685Z,2236
2016-02-22T09:46:41.818Z,2023
2016-02-22T09:49:43.920Z,2051
2016-02-22T09:52:56.601Z,2205
2016-02-22T09:56:07.811Z,2571
2016-02-22T09:59:20.962Z,2947
2016-02-22T10:02:36.845Z,3041
2016-02-22T10:05:39.369Z,3200
2016-02-22T10:08:52.283Z,3109
2016-02-22T10:12:05.432Z,3801
2016-02-22T10:15:18.552Z,3744
2016-02-22T10:18:34.607Z,3454
2016-02-22T10:21:42.740Z,2971
2016-02-22T10:24:44.826Z,2584
2016-02-22T10:27:55.959Z,2449
2016-02-22T10:31:09.249Z,2331
2016-02-22T10:34:22.197Z,2332
2016-02-22T10:37:41.299Z,2351
2016-02-22T10:40:43.447Z,2291
2016-02-22T10:43:55.815Z,2310
2016-02-22T10:47:06.135Z,2178
2016-02-22T10:50:16.568Z,2060
2016-02-22T10:53:26.686Z,2047
2016-02-22T10:56:42.772Z,2059
2016-02-22T10:59:44.906Z,2104
2016-02-22T11:02:57.788Z,2027
2016-02-22T11:06:07.640Z,2321
2016-02-22T11:09:20.619Z,2504
2016-02-22T11:12:37.471Z,2672
2016-02-22T11:15:39.573Z,2909
2016-02-22T11:18:52.222Z,2708
2016-02-22T11:22:05.370Z,2669
2016-02-22T11:25:16.725Z,2679
2016-02-22T11:28:26.811Z,3291
2016-02-22T11:31:39.554Z,2904
2016-02-22T11:34:50.280Z,2466
2016-02-22T11:38:03.257Z,2497
2016-02-22T11:41:15.375Z,2643
2016-02-22T11:44:34.683Z,3037
2016-02-22T11:47:42.768Z,3272
2016-02-22T11:50:44.933Z,3440
2016-02-22T11:53:57.910Z,3505
2016-02-22T11:57:08.151Z,3157
2016-02-22T12:00:20.100Z,3204
2016-02-22T12:03:35.311Z,2632
2016-02-22T12:06:43.554Z,3071
2016-02-22T12:09:45.702Z,2872
2016-02-22T12:12:56.524Z,2459
2016-02-22T12:16:09.203Z,2905
2016-02-22T12:19:22.136Z,2934
2016-02-22T12:22:41.034Z,2544
2016-02-22T12:25:42.996Z,2736
2016-02-22T12:28:54.520Z,3038
2016-02-22T12:32:07.527Z,2737
2016-02-22T12:35:18.210Z,2667
2016-02-22T12:38:34.156Z,2360
2016-02-22T12:41:42.164Z,2397
2016-02-22T12:44:44.202Z,2575
2016-02-22T12:47:57.508Z,2652
2016-02-22T12:51:08.110Z,2445
2016-02-22T12:54:17.373Z,2632
2016-02-22T12:57:33.962Z,2620
2016-02-22T13:00:41.938Z,2567
2016-02-22T13:03:44.025Z,2867
2016-02-22T13:06:56.564Z,2910
2016-02-22T13:10:09.322Z,2864
2016-02-22T13:13:22.299Z,2450
2016-02-22T13:16:38.810Z,2234
2016-02-22T13:19:40.927Z,2568
2016-02-22T13:22:51.326Z,2454
2016-02-22T13:26:01.662Z,2256
2016-02-22T13:29:14.107Z,2421
2016-02-22T13:32:25.570Z,2265
2016-02-22T13:35:38.001Z,2642
2016-02-22T13:38:51.369Z,2528
2016-02-22T13:42:04.236Z,2497
2016-02-22T13:45:17.072Z,2411
2016-02-22T13:48:35.334Z,2203
2016-02-22T13:51:43.294Z,1964
2016-02-22T13:54:45.332Z,1752
2016-02-22T13:57:57.988Z,1516
2016-02-22T14:01:10.902Z,1002
2016-02-22T14:04:23.286Z,1351
2016-02-22T14:07:40.125Z,1234
2016-02-22T14:10:42.196Z,1155
2016-02-22T14:13:54.110Z,1142
2016-02-22T14:17:06.978Z,1183
2016-02-22T14:20:17.672Z,1284
2016-02-22T14:23:34.025Z,1349
2016-02-22T14:26:42.005Z,1264
2016-02-22T14:29:44.075Z,1341
2016-02-22T14:32:56.989Z,1303
2016-02-22T14:36:06.862Z,1273
2016-02-22T14:39:19.917Z,1190
2016-02-22T14:42:39.175Z,1257
2016-02-22T14:45:41.026Z,1228
2016-02-22T14:48:51.741Z,1159
2016-02-22T14:52:04.514Z,1103
2016-02-22T14:55:15.695Z,1027
2016-02-22T14:58:34.531Z,947
2016-02-22T15:01:42.586Z,843
2016-02-22T15:04:44.516Z,807
2016-02-22T15:07:54.258Z,723
2016-02-22T15:11:04.707Z,628
2016-02-22T15:14:14.746Z,566
2016-02-22T15:17:26.881Z,579
2016-02-22T15:20:38.457Z,594
2016-02-22T15:23:51.370Z,632
2016-02-22T15:27:04.148Z,629
2016-02-22T15:30:16.698Z,629
2016-02-22T15:33:35.501Z,607
2016-02-22T15:36:43.463Z,479
2016-02-22T15:39:45.204Z,428
2016-02-22T15:42:57.992Z,507
2016-02-22T15:46:08.096Z,393
2016-02-22T15:49:20.886Z,373
2016-02-22T15:52:39.785Z,307
2016-02-22T15:55:41.590Z,294
2016-02-22T15:58:54.457Z,258
2016-02-22T16:02:07.215Z,273
2016-02-22T16:05:20.185Z,255
2016-02-22T16:08:36.568Z,206
2016-02-22T16:11:38.357Z,184
2016-02-22T16:14:50.975Z,161
2016-02-22T16:18:00.936Z,133
2016-02-22T16:21:10.397Z,106
2016-02-22T16:24:20.393Z,87
2016-02-22T16:27:38.572Z,61
2016-02-22T16:30:40.502Z,48
2016-02-22T16:33:52.120Z,32
2016-02-22T16:37:03.721Z,25
2016-02-22T16:40:16.373Z,22
2016-02-22T16:43:35.490Z,14
2016-02-22T16:46:43.358Z,8
2016-02-22T16:49:45.085Z,6
2016-02-22T16:52:57.328Z,4
2016-02-22T16:56:10.147Z,2
2016-02-22T16:59:23.003Z,1
2016-02-22T17:02:41.480Z,1
2016-02-22T17:05:43.347Z,1
2016-02-22T17:08:53.932Z,1
2016-02-22T17:12:05.019Z,1
2016-02-22T17:15:14.417Z,1
2016-02-22T17:18:24.163Z,1
2016-02-22T17:21:41.514Z,1
2016-02-22T17:24:43.398Z,1
2016-02-22T17:27:54.514Z,1
2016-02-22T17:31:06.320Z,1
2016-02-22T17:34:19.096Z,1
2016-02-22T17:37:37.855Z,1
2016-02-22T17:40:39.674Z,1
2016-02-22T17:43:49.746Z,1
2016-02-22T17:47:02.441Z,1
2016-02-22T17:50:15.262Z,1
2016-02-22T17:53:24.756Z,1
2016-02-22T17:56:43.562Z,1
2016-02-22T17:59:45.305Z,1
2016-02-22T18:02:55.672Z,1
2016-02-22T18:06:08.399Z,1
2016-02-22T18:09:20.957Z,1
2016-02-22T18:12:40.011Z,1
2016-02-22T18:15:41.629Z,1
2016-02-22T18:18:53.137Z,1
2016-02-22T18:22:04.442Z,1
2016-02-22T18:25:17.043Z,1
2016-02-22T18:28:35.758Z,1
2016-02-22T18:31:43.750Z,1
2016-02-22T18:34:45.524Z,1
2016-02-22T18:37:56.782Z,1
2016-02-22T18:41:09.727Z,1
2016-02-22T18:44:22.160Z,1
2016-02-22T18:47:38.840Z,1
2016-02-22T18:50:40.660Z,1
2016-02-22T18:53:53.356Z,1
2016-02-22T18:57:02.973Z,1
2016-02-22T19:00:13.998Z,1
2016-02-22T19:03:28.898Z,1
2016-02-22T19:06:39.594Z,0
2016-02-22T19:09:52.055Z,0
2016-02-22T19:13:04.627Z,0
2016-02-22T19:16:16.227Z,1
2016-02-22T19:19:27.598Z,1
2016-02-22T19:22:40.028Z,1
2016-02-22T19:25:52.724Z,1
2016-02-22T19:29:05.497Z,1
2016-02-22T19:32:18.256Z,1
2016-02-22T19:35:36.859Z,1
2016-02-22T19:38:38.665Z,1
2016-02-22T19:41:48.766Z,1
2016-02-22T19:44:59.133Z,1
2016-02-22T19:48:11.876Z,1
2016-02-22T19:51:24.618Z,1
2016-02-22T19:54:40.739Z,1
2016-02-22T19:57:42.513Z,1
2016-02-22T20:00:54.442Z,1
2016-02-22T20:04:06.981Z,1
2016-02-22T20:07:16.850Z,1
2016-02-22T20:10:35.500Z,1
2016-02-22T20:13:43.263Z,1
2016-02-22T20:16:45.053Z,1
2016-02-22T20:19:57.718Z,1
2016-02-22T20:23:10.241Z,1
2016-02-22T20:26:22.749Z,1
2016-02-22T20:29:41.682Z,1
2016-02-22T20:32:43.486Z,1
2016-02-22T20:35:54.119Z,1
2016-02-22T20:39:07.018Z,1
2016-02-22T20:42:19.714Z,1
2016-02-22T20:45:38.537Z,1
2016-02-22T20:48:40.123Z,1
2016-02-22T20:51:52.896Z,1
2016-02-22T20:55:05.029Z,1
2016-02-22T20:58:15.242Z,1
2016-02-22T21:01:25.218Z,1
2016-02-22T21:04:43.916Z,1
2016-02-22T21:07:45.671Z,1
2016-02-22T21:10:59.116Z,1
2016-02-22T21:14:10.172Z,1
2016-02-22T21:17:20.024Z,1
2016-02-22T21:20:38.784Z,1
2016-02-22T21:23:40.481Z,1
2016-02-22T21:26:51.145Z,1
2016-02-22T21:30:03.700Z,1
2016-02-22T21:33:14.161Z,1
2016-02-22T21:36:28.343Z,1
2016-02-22T21:39:38.680Z,1
2016-02-22T21:42:51.360Z,1
2016-02-22T21:46:04.586Z,1
2016-02-22T21:49:15.782Z,1
2016-02-22T21:52:28.165Z,1
2016-02-22T21:55:40.581Z,1
2016-02-22T21:58:54.121Z,1
2016-02-22T22:02:06.817Z,1
2016-02-22T22:05:19.309Z,1
2016-02-22T22:08:37.944Z,1
2016-02-22T22:11:39.655Z,1
2016-02-22T22:14:50.368Z,1
2016-02-22T22:18:03.063Z,1
2016-02-22T22:21:15.700Z,1
2016-02-22T22:24:34.507Z,1
2016-02-22T22:27:42.406Z,1
2016-02-22T22:30:44.117Z,1
2016-02-22T22:33:54.265Z,1
2016-02-22T22:37:06.305Z,1
2016-02-22T22:40:16.970Z,1
2016-02-22T22:43:35.590Z,1
2016-02-22T22:46:43.363Z,1
2016-02-22T22:49:45.106Z,1
2016-02-22T22:52:56.192Z,1
2016-02-22T22:56:08.575Z,1
2016-02-22T22:59:20.896Z,1
2016-02-22T23:02:39.672Z,0
2016-02-22T23:05:41.446Z,0
2016-02-22T23:08:54.079Z,0
2016-02-22T23:12:04.696Z,0
2016-02-22T23:15:14.564Z,0
2016-02-22T23:18:27.369Z,0
2016-02-22T23:21:39.926Z,0
2016-02-22T23:24:52.513Z,0
2016-02-22T23:28:01.536Z,0
2016-02-22T23:31:14.310Z,0
2016-02-22T23:34:23.896Z,0
2016-02-22T23:37:42.579Z,0
2016-02-22T23:40:44.399Z,0
2016-02-22T23:43:57.126Z,0
2016-02-22T23:47:06.837Z,0
2016-02-22T23:50:18.642Z,0
2016-02-22T23:53:35.669Z,0
2016-02-22T23:56:43.349Z,0
2016-02-22T23:59:45.107Z,0
